Time;durP1;ratioP1;P1;durP2;ratioP2;P2;SDS_P1;SDS_P2;PMS_P1;PMS_P2;Temp;Humidity;BMP_temperature;BMP_pressure;BME280_temperature;BME280_humidity;BME280_pressure;Samples;Min_cycle;Max_cycle;Signal;HPM_P1;HPM_P2
2024/01/04 00:00:12;;;;;;;1.95;0.45;;;;;;;12.15;77.04;98655.16;5029618;27;96841;-72
2024/01/04 00:02:39;;;;;;;1.50;0.47;;;;;;;12.49;74.96;98649.00;5023121;27;97192;-71
2024/01/04 00:05:06;;;;;;;4.60;0.63;;;;;;;12.07;76.92;98646.94;5025504;27;99446;-69
2024/01/04 00:07:32;;;;;;;2.50;0.60;;;;;;;12.04;76.96;98650.66;5028663;27;97660;-69
2024/01/04 00:09:58;;;;;;;3.85;0.50;;;;;;;12.31;75.97;98653.91;5028145;27;96906;-69
2024/01/04 00:12:25;;;;;;;1.45;0.50;;;;;;;11.94;77.47;98653.16;5019993;27;96748;-70
2024/01/04 00:14:51;;;;;;;2.90;0.68;;;;;;;12.22;76.70;98659.88;5025066;27;98920;-70
2024/01/04 00:17:19;;;;;;;3.33;0.70;;;;;;;12.11;77.84;98659.84;5026327;27;99156;-70
2024/01/04 00:19:45;;;;;;;2.53;0.77;;;;;;;12.01;78.76;98661.50;5022474;27;96782;-70
2024/01/04 00:22:15;;;;;;;3.58;0.70;;;;;;;11.77;79.86;98656.19;5020202;27;97630;-70
2024/01/04 00:24:43;;;;;;;3.50;0.65;;;;;;;11.46;81.95;98651.41;5022670;27;100252;-69
2024/01/04 00:27:09;;;;;;;1.65;0.52;;;;;;;11.69;81.29;98649.72;5031275;27;98772;-70
2024/01/04 00:29:35;;;;;;;2.03;0.65;;;;;;;12.06;79.83;98658.50;5018477;27;97092;-70
2024/01/04 00:32:02;;;;;;;2.30;0.40;;;;;;;12.17;78.98;98658.53;5019197;27;96880;-70
2024/01/04 00:34:29;;;;;;;3.50;0.40;;;;;;;12.17;78.82;98658.53;5022248;27;99510;-70
2024/01/04 00:36:57;;;;;;;1.88;0.50;;;;;;;12.47;77.09;98663.34;5028309;27;98572;-70
2024/01/04 00:39:24;;;;;;;3.10;0.60;;;;;;;12.08;78.03;98665.34;5024410;27;97126;-71
2024/01/04 00:41:50;;;;;;;2.58;0.57;;;;;;;12.03;77.89;98667.50;5025267;27;101581;-70
2024/01/04 00:44:16;;;;;;;3.35;0.65;;;;;;;12.15;78.65;98677.16;5023916;27;98473;-70
2024/01/04 00:46:43;;;;;;;3.10;0.50;;;;;;;11.63;79.81;98666.91;5027668;27;98838;-71
2024/01/04 00:49:09;;;;;;;2.67;0.70;;;;;;;11.99;79.11;98668.69;5029760;27;96802;-71
2024/01/04 00:51:37;;;;;;;4.70;0.63;;;;;;;12.05;77.62;98670.03;5024804;27;98432;-70
2024/01/04 00:54:04;;;;;;;1.80;0.70;;;;;;;11.39;80.88;98682.75;5025993;27;99552;-70
2024/01/04 00:56:32;;;;;;;1.30;0.50;;;;;;;11.65;80.12;98672.94;5027672;27;98776;-71
2024/01/04 00:58:58;;;;;;;3.85;0.60;;;;;;;11.71;80.24;98672.47;5028943;27;96807;-71
2024/01/04 01:01:24;;;;;;;2.30;0.88;;;;;;;11.83;79.17;98676.06;5028483;27;97182;-71
2024/01/04 01:03:51;;;;;;;1.95;0.30;;;;;;;11.57;79.76;98668.19;5022952;27;98640;-72
2024/01/04 01:06:17;;;;;;;3.22;0.47;;;;;;;11.26;81.62;98674.00;5025769;27;98927;-70
2024/01/04 01:08:45;;;;;;;2.95;0.55;;;;;;;11.89;79.17;98672.97;5024352;27;96651;-70
2024/01/04 01:11:11;;;;;;;2.95;0.50;;;;;;;11.47;80.27;98672.47;5024678;27;97181;-70
2024/01/04 01:13:37;;;;;;;3.50;0.63;;;;;;;11.70;79.43;98677.88;5027241;27;99317;-71
2024/01/04 01:16:04;;;;;;;3.63;0.35;;;;;;;11.76;78.78;98674.81;5017162;27;98160;-71
2024/01/04 01:18:31;;;;;;;3.38;0.63;;;;;;;12.05;77.38;98676.19;5017545;27;97174;-70
2024/01/04 01:20:58;;;;;;;4.15;0.63;;;;;;;12.25;76.45;98686.13;5017963;27;100964;-69
2024/01/04 01:23:24;;;;;;;2.17;0.60;;;;;;;12.34;75.82;98680.13;5013942;27;101812;-70
2024/01/04 01:25:52;;;;;;;2.03;0.50;;;;;;;12.08;75.48;98675.13;5027960;27;99189;-69
2024/01/04 01:28:19;;;;;;;3.65;1.10;;;;;;;11.94;76.77;98684.06;5020406;27;96705;-69
2024/01/04 01:30:45;;;;;;;1.63;0.35;;;;;;;11.26;79.63;98686.34;5018884;27;96791;-69
2024/01/04 01:33:11;;;;;;;1.00;0.40;;;;;;;11.64;78.45;98681.81;5021946;27;98927;-70
2024/01/04 01:35:38;;;;;;;1.42;0.35;;;;;;;11.67;78.14;98686.91;5031894;27;99192;-71
2024/01/04 01:38:05;;;;;;;1.52;0.30;;;;;;;11.95;77.00;98675.16;5030552;27;96722;-71
2024/01/04 01:40:31;;;;;;;2.47;0.40;;;;;;;11.56;78.09;98679.72;5026968;27;97332;-71
2024/01/04 01:42:59;;;;;;;1.50;0.40;;;;;;;11.88;76.57;98685.34;5020386;27;98631;-71
2024/01/04 01:45:26;;;;;;;1.38;0.28;;;;;;;12.17;75.35;98690.31;5019792;27;99496;-70
2024/01/04 01:47:53;;;;;;;2.30;0.38;;;;;;;12.02;75.70;98686.97;5020574;27;96987;-70
2024/01/04 01:50:22;;;;;;;2.65;0.30;;;;;;;11.94;75.65;98684.94;5020107;27;97160;-70
2024/01/04 01:52:50;;;;;;;1.67;0.30;;;;;;;11.89;76.04;98696.78;5025898;27;98907;-70
2024/01/04 01:55:17;;;;;;;2.60;0.30;;;;;;;12.16;74.87;98699.19;5030596;27;98899;-70
2024/01/04 01:57:44;;;;;;;3.00;0.50;;;;;;;12.22;74.63;98696.94;5026582;27;96782;-71
2024/01/04 02:00:14;;;;;;;2.42;0.40;;;;;;;12.30;74.43;98702.53;5028759;27;97449;-71
2024/01/04 02:02:45;;;;;;;2.25;0.57;;;;;;;12.16;74.42;98697.41;5030552;27;99729;-69
2024/01/04 02:05:11;;;;;;;3.40;0.30;;;;;;;12.38;73.73;98710.75;5020287;27;98828;-70
2024/01/04 02:07:36;;;;;;;3.42;0.60;;;;;;;11.83;75.54;98697.22;5030767;27;97296;-72
2024/01/04 02:10:03;;;;;;;;;;;;;;;11.78;76.79;98699.38;5028161;27;96900;-70
2024/01/04 02:12:32;;;;;;;0.77;0.47;;;;;;;11.25;78.67;98698.72;5025597;27;98865;-70
2024/01/04 02:14:58;;;;;;;2.25;0.40;;;;;;;11.67;78.14;98696.63;5020817;27;98922;-70
2024/01/04 02:17:28;;;;;;;1.27;0.30;;;;;;;11.71;78.75;98696.28;5025605;27;96656;-70
2024/01/04 02:19:57;;;;;;;0.80;0.32;;;;;;;12.07;76.83;98700.75;5019321;27;96795;-70
2024/01/04 02:22:23;;;;;;;2.13;0.40;;;;;;;12.15;76.21;98698.34;5024980;27;99166;-70
2024/01/04 02:24:51;;;;;;;2.85;0.45;;;;;;;11.61;79.85;98697.06;5027863;27;99032;-70
2024/01/04 02:27:18;;;;;;;1.08;0.40;;;;;;;12.01;77.99;98693.25;5020330;27;97647;-70
2024/01/04 02:29:45;;;;;;;1.67;0.30;;;;;;;11.91;78.04;98685.13;5028824;27;97406;-72
2024/01/04 02:32:11;;;;;;;2.72;0.52;;;;;;;11.93;78.17;98692.97;5027358;27;100101;-70
2024/01/04 02:34:37;;;;;;;1.95;0.38;;;;;;;12.11;77.29;98688.97;5031130;27;99192;-71
2024/01/04 02:37:04;;;;;;;4.85;0.60;;;;;;;12.04;77.03;98692.16;5025008;27;96988;-70
2024/01/04 02:39:30;;;;;;;2.40;0.43;;;;;;;12.46;75.20;98696.94;5031459;27;96778;-71
2024/01/04 02:41:58;;;;;;;2.38;0.40;;;;;;;12.30;75.28;98699.03;5029419;27;101456;-70
2024/01/04 02:44:24;;;;;;;2.72;0.40;;;;;;;12.34;75.20;98709.25;5030718;27;97499;-69
2024/01/04 02:46:51;;;;;;;0.93;0.40;;;;;;;12.48;74.76;98699.44;5025618;27;97280;-70
2024/01/04 02:49:17;;;;;;;1.92;0.40;;;;;;;12.49;74.78;98696.69;5027219;27;97318;-70
2024/01/04 02:51:44;;;;;;;0.68;0.38;;;;;;;12.37;74.30;98701.09;5023769;27;98895;-70
2024/01/04 02:54:10;;;;;;;1.58;0.30;;;;;;;12.23;75.14;98705.72;5027964;27;99375;-69
2024/01/04 02:56:37;;;;;;;1.92;0.30;;;;;;;12.14;75.47;98707.25;5022245;27;97137;-70
2024/01/04 02:59:07;;;;;;;2.17;0.20;;;;;;;11.73;76.61;98707.63;5020830;27;99247;-70
2024/01/04 03:01:33;;;;;;;1.50;0.45;;;;;;;11.63;77.85;98706.56;5026111;27;98958;-70
2024/01/04 03:04:00;;;;;;;0.85;0.35;;;;;;;10.88;82.58;98700.47;5027609;27;99202;-71
2024/01/04 03:06:27;;;;;;;2.80;0.35;;;;;;;10.99;83.79;98707.63;5022493;27;97662;-71
2024/01/04 03:08:54;;;;;;;2.58;0.40;;;;;;;11.41;82.87;98706.44;5027574;27;97114;-72
2024/01/04 03:11:21;;;;;;;2.45;0.40;;;;;;;11.33;82.98;98701.69;5028512;27;99325;-70
2024/01/04 03:13:47;;;;;;;1.50;0.30;;;;;;;11.39;83.88;98709.19;5020826;27;99297;-71
2024/01/04 03:16:15;;;;;;;1.02;0.20;;;;;;;11.18;86.31;98710.69;5027238;27;96714;-71
2024/01/04 03:18:42;;;;;;;3.72;0.43;;;;;;;11.14;87.36;98704.78;5023609;27;96797;-70
2024/01/04 03:21:09;;;;;;;0.88;0.30;;;;;;;10.71;91.45;98711.31;5027392;27;98909;-71
2024/01/04 03:23:35;;;;;;;2.08;0.30;;;;;;;11.13;89.90;98700.44;5029850;27;99241;-71
2024/01/04 03:26:02;;;;;;;3.13;0.30;;;;;;;11.25;89.66;98706.66;5030445;27;97571;-71
2024/01/04 03:28:28;;;;;;;0.45;0.20;;;;;;;11.37;89.53;98700.50;5030325;27;96733;-71
2024/01/04 03:30:54;;;;;;;0.75;0.30;;;;;;;11.36;89.69;98701.44;5022135;27;98852;-71
2024/01/04 03:33:23;;;;;;;0.70;0.30;;;;;;;11.45;89.20;98713.19;5018590;27;99142;-71
2024/01/04 03:35:50;;;;;;;5.28;0.45;;;;;;;11.61;88.26;98708.50;5025708;27;97920;-71
2024/01/04 03:38:16;;;;;;;3.63;0.30;;;;;;;11.07;91.18;98706.16;5026199;27;97347;-71
2024/01/04 03:40:42;;;;;;;1.13;0.30;;;;;;;11.40;90.04;98707.38;5022787;27;101399;-70
2024/01/04 03:43:09;;;;;;;1.45;0.30;;;;;;;11.46;89.89;98710.44;5027275;27;98164;-71
2024/01/04 03:45:35;;;;;;;2.70;0.43;;;;;;;11.63;88.50;98703.09;5022867;27;97748;-71
2024/01/04 03:48:02;;;;;;;1.80;0.22;;;;;;;11.24;89.86;98710.25;5026570;27;96852;-71
2024/01/04 03:50:29;;;;;;;0.80;0.30;;;;;;;11.63;88.44;98705.72;5023216;27;99515;-71
2024/01/04 03:52:56;;;;;;;2.20;0.30;;;;;;;11.86;87.50;98712.91;5025769;27;98840;-71
2024/01/04 03:55:22;;;;;;;1.27;0.30;;;;;;;11.43;88.80;98709.78;5029089;27;97126;-71
2024/01/04 03:57:50;;;;;;;2.58;0.50;;;;;;;11.52;88.65;98699.41;5027461;27;96888;-72
2024/01/04 04:00:17;;;;;;;3.53;1.00;;;;;;;11.63;87.55;98698.63;5020597;27;99086;-71
2024/01/04 04:02:44;;;;;;;1.85;0.30;;;;;;;11.32;89.12;98705.28;5026204;27;99595;-71
2024/01/04 04:05:10;;;;;;;5.15;0.70;;;;;;;11.37;88.98;98704.94;5020488;27;96789;-71
2024/01/04 04:07:38;;;;;;;1.55;0.40;;;;;;;11.12;89.97;98700.53;5017614;27;97437;-72
2024/01/04 04:10:05;;;;;;;1.02;0.20;;;;;;;11.29;88.89;98697.53;5019986;27;99265;-71
2024/01/04 04:12:31;;;;;;;1.42;0.20;;;;;;;11.56;88.11;98703.53;5018666;27;98992;-73
2024/01/04 04:14:58;;;;;;;1.95;0.20;;;;;;;11.08;89.66;98714.94;5025730;27;100014;-70
2024/01/04 04:17:25;;;;;;;1.45;0.55;;;;;;;11.36;88.18;98705.88;5024199;27;96731;-70
2024/01/04 04:19:51;;;;;;;1.63;0.40;;;;;;;11.56;87.69;98715.91;5027033;27;98895;-70
2024/01/04 04:22:23;;;;;;;0.70;0.25;;;;;;;11.65;86.32;98717.06;5022923;27;98924;-69
2024/01/04 04:24:50;;;;;;;1.80;0.52;;;;;;;11.21;88.33;98710.47;5019765;27;97118;-70
2024/01/04 04:27:17;;;;;;;0.77;0.40;;;;;;;11.07;89.06;98721.16;5023135;27;97344;-70
2024/01/04 04:29:43;;;;;;;4.40;0.40;;;;;;;10.86;89.92;98725.28;5026857;27;97759;-71
2024/01/04 04:32:10;;;;;;;0.75;0.20;;;;;;;10.87;90.45;98722.53;5018916;27;99348;-71
2024/01/04 04:34:36;;;;;;;1.05;0.30;;;;;;;10.72;90.79;98723.56;5022948;27;97218;-71
2024/01/04 04:37:03;;;;;;;1.67;0.40;;;;;;;10.51;91.58;98731.16;5024344;27;97260;-70
2024/01/04 04:39:30;;;;;;;1.58;0.40;;;;;;;10.69;90.94;98722.00;5024013;27;98214;-70
2024/01/04 04:41:58;;;;;;;0.47;0.43;;;;;;;10.78;90.95;98733.72;5010589;27;100885;-70
2024/01/04 04:44:25;;;;;;;1.40;0.30;;;;;;;11.00;89.21;98731.31;5026094;27;97847;-71
2024/01/04 04:46:52;;;;;;;1.00;0.43;;;;;;;10.92;89.87;98730.16;5024809;27;97232;-71
2024/01/04 04:49:18;;;;;;;0.93;0.32;;;;;;;10.39;91.84;98742.53;5025363;27;98435;-70
2024/01/04 04:51:51;;;;;;;2.78;0.55;;;;;;;10.55;91.32;98734.44;5018952;27;99455;-71
2024/01/04 04:54:18;;;;;;;2.10;0.52;;;;;;;10.68;91.03;98743.25;5024807;27;97239;-71
2024/01/04 04:56:51;;;;;;;3.08;0.43;;;;;;;10.86;90.55;98735.84;5022834;27;97737;-71
2024/01/04 04:59:19;;;;;;;2.65;0.40;;;;;;;11.02;89.26;98742.63;5025136;27;98824;-72
2024/01/04 05:01:45;;;;;;;0.85;0.63;;;;;;;10.94;89.69;98750.25;5026921;27;99124;-71
2024/01/04 05:04:14;;;;;;;0.75;0.50;;;;;;;11.04;89.32;98739.88;5032335;27;97159;-71
2024/01/04 05:06:40;;;;;;;1.80;0.50;;;;;;;11.07;89.02;98755.53;5032582;27;96697;-70
2024/01/04 05:09:07;;;;;;;1.42;0.50;;;;;;;10.87;90.29;98769.25;5029892;27;98855;-71
2024/01/04 05:11:33;;;;;;;0.88;0.47;;;;;;;11.07;90.32;98771.38;5030318;27;99142;-71
2024/01/04 05:14:02;;;;;;;1.83;0.82;;;;;;;10.98;89.38;98772.00;5032226;27;96685;-70
2024/01/04 05:16:30;;;;;;;3.42;0.77;;;;;;;10.15;93.83;98774.00;5032745;27;97120;-72
2024/01/04 05:18:56;;;;;;;1.15;0.60;;;;;;;10.30;94.47;98770.41;5031283;27;102332;-70
2024/01/04 05:21:23;;;;;;;1.58;0.85;;;;;;;10.21;94.93;98775.44;5030625;27;99130;-71
2024/01/04 05:23:50;;;;;;;1.98;0.63;;;;;;;9.90;97.33;98781.81;5029573;27;96946;-70
2024/01/04 05:26:21;;;;;;;3.65;0.60;;;;;;;10.69;94.51;98785.41;5031852;27;96816;-71
2024/01/04 05:28:48;;;;;;;2.63;0.73;;;;;;;10.23;94.59;98776.19;5030253;27;100774;-70
2024/01/04 05:31:17;;;;;;;2.80;1.10;;;;;;;10.17;95.98;98790.63;5020859;27;98863;-70
2024/01/04 05:33:45;;;;;;;3.65;0.90;;;;;;;10.42;96.14;98795.16;5032268;27;96668;-70
2024/01/04 05:36:12;;;;;;;0.60;0.60;;;;;;;10.34;95.42;98787.72;5029226;27;97166;-70
2024/01/04 05:38:38;;;;;;;1.05;0.65;;;;;;;10.62;95.37;98791.19;5023708;27;102271;-71
2024/01/04 05:41:05;;;;;;;3.42;0.80;;;;;;;10.30;96.91;98785.41;5027544;27;98768;-73
2024/01/04 05:43:33;;;;;;;3.03;0.68;;;;;;;10.40;94.52;98797.03;5030467;27;97611;-71
2024/01/04 05:45:59;;;;;;;2.28;1.10;;;;;;;10.35;95.50;98793.84;5029202;27;97116;-71
2024/01/04 05:48:25;;;;;;;5.55;0.95;;;;;;;10.51;94.88;98805.09;5031287;27;99574;-71
2024/01/04 05:50:54;;;;;;;1.55;0.65;;;;;;;10.54;94.54;98807.53;5028309;27;98865;-70
2024/01/04 05:53:20;;;;;;;2.05;1.00;;;;;;;10.64;94.17;98805.97;5023096;27;97206;-70
2024/01/04 05:55:47;;;;;;;1.65;1.00;;;;;;;10.31;95.37;98805.53;5028166;27;97392;-71
2024/01/04 05:58:13;;;;;;;1.88;0.82;;;;;;;10.50;95.76;98816.59;5018737;27;98870;-70
2024/01/04 06:00:47;;;;;;;1.38;0.80;;;;;;;10.14;96.03;98811.03;5028266;27;101486;-71
2024/01/04 06:03:13;;;;;;;1.83;0.70;;;;;;;10.48;96.49;98810.59;5023156;27;97302;-70
2024/01/04 06:05:40;;;;;;;1.13;0.80;;;;;;;10.53;94.63;98807.63;5025181;27;96892;-70
2024/01/04 06:08:08;;;;;;;0.82;0.77;;;;;;;10.64;94.98;98826.25;5029046;27;99220;-70
2024/01/04 06:10:35;;;;;;;3.58;0.85;;;;;;;10.68;93.58;98831.25;5030297;27;99022;-71
2024/01/04 06:13:01;;;;;;;1.58;0.70;;;;;;;10.41;94.45;98830.41;5027252;27;96847;-69
2024/01/04 06:15:27;;;;;;;2.70;0.75;;;;;;;10.54;94.39;98838.38;5028717;27;96981;-70
2024/01/04 06:17:54;;;;;;;1.80;1.17;;;;;;;10.28;94.92;98830.38;5029475;27;98091;-70
2024/01/04 06:20:20;;;;;;;1.65;0.90;;;;;;;10.25;94.81;98838.47;5026026;27;100926;-71
2024/01/04 06:22:51;;;;;;;2.25;0.73;;;;;;;10.02;95.50;98848.78;5012942;27;97331;-70
2024/01/04 06:25:19;;;;;;;3.30;1.00;;;;;;;9.87;97.50;98850.56;5030645;27;97523;-69
2024/01/04 06:27:45;;;;;;;1.42;0.82;;;;;;;10.06;95.34;98853.75;5022385;27;98011;-71
2024/01/04 06:30:12;;;;;;;2.28;0.82;;;;;;;10.07;94.36;98844.91;5025671;27;101643;-70
2024/01/04 06:32:39;;;;;;;2.50;0.88;;;;;;;10.16;94.10;98859.31;5024293;27;97486;-70
2024/01/04 06:35:05;;;;;;;1.15;0.40;;;;;;;9.87;94.11;98861.13;5023858;27;96865;-70
2024/01/04 06:37:32;;;;;;;1.25;0.52;;;;;;;9.72;95.24;98859.44;5030660;27;97986;-75
2024/01/04 06:39:58;;;;;;;0.60;0.50;;;;;;;9.70;94.77;98871.88;5030367;27;98864;-75
2024/01/04 06:42:26;;;;;;;1.10;0.40;;;;;;;9.54;96.73;98874.59;5025863;27;97183;-75
2024/01/04 06:44:52;;;;;;;1.17;0.40;;;;;;;10.03;93.64;98877.72;5026304;27;96741;-74
2024/01/04 06:47:18;;;;;;;3.13;0.60;;;;;;;10.41;90.89;98877.09;5026342;27;99068;-75
2024/01/04 06:49:45;;;;;;;2.70;0.70;;;;;;;10.58;89.62;98882.97;5030048;27;98393;-76
2024/01/04 06:52:11;;;;;;;4.72;0.57;;;;;;;10.43;89.45;98896.34;5028514;27;97491;-75
2024/01/04 06:54:37;;;;;;;1.00;0.40;;;;;;;10.68;88.63;98886.72;5029634;27;97217;-75
2024/01/04 06:57:06;;;;;;;1.90;0.55;;;;;;;10.82;87.33;98895.53;5027662;27;98906;-73
2024/01/04 06:59:34;;;;;;;0.68;0.52;;;;;;;11.03;85.43;98909.97;5027805;27;98824;-73
2024/01/04 07:02:00;;;;;;;0.95;0.43;;;;;;;11.36;82.71;98910.34;5025206;27;96727;-73
2024/01/04 07:04:27;;;;;;;2.10;0.55;;;;;;;11.52;82.14;98918.09;5031313;27;97200;-73
2024/01/04 07:06:53;;;;;;;0.98;0.70;;;;;;;11.12;82.52;98919.94;5029607;27;99457;-73
2024/01/04 07:09:20;;;;;;;1.52;0.68;;;;;;;10.52;86.52;98936.19;5028771;27;98731;-73
2024/01/04 07:11:46;;;;;;;2.90;1.00;;;;;;;10.62;86.17;98939.94;5024551;28;97508;-73
2024/01/04 07:14:13;;;;;;;3.03;0.75;;;;;;;10.95;84.30;98944.00;5022168;27;96846;-73
2024/01/04 07:16:44;;;;;;;1.50;0.50;;;;;;;10.81;84.82;98957.25;5025842;27;98081;-73
2024/01/04 07:19:10;;;;;;;0.50;0.20;;;;;;;9.93;85.60;98955.72;5027818;27;102611;-73
2024/01/04 07:21:37;;;;;;;1.15;0.30;;;;;;;9.52;83.16;98966.13;5027747;27;96673;-74
2024/01/04 07:24:04;;;;;;;0.20;0.10;;;;;;;8.71;83.68;98959.44;5019756;27;96966;-74
2024/01/04 07:26:30;;;;;;;0.28;0.20;;;;;;;8.66;84.46;98969.38;5032930;27;99241;-75
2024/01/04 07:28:57;;;;;;;0.20;0.10;;;;;;;9.22;80.82;98965.28;5029940;27;98954;-74
2024/01/04 07:31:23;;;;;;;0.40;0.20;;;;;;;8.98;80.93;98968.41;5028250;27;97044;-76
2024/01/04 07:33:51;;;;;;;0.85;0.20;;;;;;;8.74;81.76;98972.41;5027618;27;97178;-74
2024/01/04 07:36:17;;;;;;;0.20;0.17;;;;;;;8.71;82.29;98969.97;5026328;27;97843;-74
2024/01/04 07:38:44;;;;;;;0.60;0.10;;;;;;;9.41;79.10;98979.94;5021931;27;98899;-74
2024/01/04 07:41:11;;;;;;;1.48;0.50;;;;;;;9.72;77.32;98992.16;5022159;27;96763;-74
2024/01/04 07:43:37;;;;;;;0.17;0.08;;;;;;;9.35;77.35;98990.00;5027333;27;97160;-74
2024/01/04 07:46:04;;;;;;;0.50;0.20;;;;;;;9.12;79.65;99004.50;5026723;27;98866;-74
2024/01/04 07:48:30;;;;;;;1.63;0.20;;;;;;;9.08;78.42;98997.69;5022756;27;97572;-74
2024/01/04 07:50:59;;;;;;;0.52;0.20;;;;;;;8.47;79.23;98995.00;5018978;27;97111;-75
2024/01/04 07:53:25;;;;;;;1.33;0.30;;;;;;;8.42;80.33;98997.03;5028204;27;96904;-76
2024/01/04 07:55:52;;;;;;;1.40;0.38;;;;;;;8.59;79.87;98994.34;5023313;27;99446;-73
2024/01/04 07:58:18;;;;;;;0.93;0.30;;;;;;;8.86;78.70;99002.50;5022365;27;98290;-75
2024/01/04 08:00:45;;;;;;;1.00;0.30;;;;;;;9.03;78.06;98994.47;5026374;27;97317;-75
2024/01/04 08:03:11;;;;;;;0.75;0.20;;;;;;;9.02;77.63;98998.91;5026159;27;97122;-76
2024/01/04 08:05:38;;;;;;;2.67;0.20;;;;;;;8.84;78.23;98994.66;5026211;27;101005;-73
2024/01/04 08:08:06;;;;;;;1.40;0.20;;;;;;;8.40;79.36;99002.41;5024270;27;98982;-74
2024/01/04 08:10:32;;;;;;;1.73;0.52;;;;;;;8.36;80.01;99006.97;5026136;27;97265;-73
2024/01/04 08:12:59;;;;;;;0.95;0.30;;;;;;;8.19;81.13;99016.66;5024258;28;96712;-73
2024/01/04 08:15:25;;;;;;;1.25;0.30;;;;;;;8.66;79.20;99017.59;5021363;27;99259;-75
2024/01/04 08:17:52;;;;;;;1.20;0.35;;;;;;;8.88;78.63;99022.53;5017247;27;100946;-75
2024/01/04 08:20:19;;;;;;;2.17;0.50;;;;;;;8.83;76.65;99019.31;5024257;27;97458;-75
2024/01/04 08:22:46;;;;;;;0.98;0.20;;;;;;;8.72;76.91;99024.31;5027390;27;97499;-75
2024/01/04 08:25:14;;;;;;;1.00;0.40;;;;;;;9.07;76.91;99030.25;5026131;27;98826;-74
2024/01/04 08:27:41;;;;;;;2.42;0.30;;;;;;;9.11;76.70;99030.00;5021178;27;101467;-75
2024/01/04 08:30:08;;;;;;;1.63;0.40;;;;;;;8.96;77.73;99037.91;5027429;27;97542;-74
2024/01/04 08:32:35;;;;;;;1.02;0.30;;;;;;;9.00;78.94;99042.06;5019488;27;97208;-73
2024/01/04 08:35:02;;;;;;;1.17;0.45;;;;;;;9.20;79.40;99032.09;5015941;27;98903;-73
2024/01/04 08:37:28;;;;;;;1.42;0.20;;;;;;;9.08;80.59;99047.75;5018873;27;98941;-74
2024/01/04 08:39:54;;;;;;;0.43;0.30;;;;;;;8.72;82.15;99062.03;5031373;27;96710;-74
2024/01/04 08:42:22;;;;;;;1.88;0.40;;;;;;;9.35;81.73;99056.75;5022088;27;97330;-74
2024/01/04 08:44:49;;;;;;;1.45;0.38;;;;;;;9.01;82.16;99049.88;5028488;27;99322;-75
2024/01/04 08:47:15;;;;;;;0.30;0.20;;;;;;;9.09;82.49;99071.38;5025592;27;99420;-75
2024/01/04 08:49:42;;;;;;;0.55;0.30;;;;;;;9.49;81.04;99071.78;5031188;27;97201;-75
2024/01/04 08:52:08;;;;;;;0.75;0.20;;;;;;;9.46;80.52;99078.06;5025068;27;97326;-76
2024/01/04 08:54:34;;;;;;;2.05;0.52;;;;;;;9.01;83.25;99086.78;5026220;27;101274;-75
2024/01/04 08:57:01;;;;;;;1.40;0.30;;;;;;;8.02;86.29;99081.50;5028096;27;98904;-74
2024/01/04 08:59:29;;;;;;;1.85;0.20;;;;;;;7.95;87.96;99097.69;5031873;27;96941;-76
2024/01/04 09:01:55;;;;;;;1.50;0.20;;;;;;;7.72;89.10;99100.63;5019933;27;99794;-76
2024/01/04 09:04:21;;;;;;;1.05;0.20;;;;;;;7.34;91.29;99108.63;5026818;27;100967;-76
2024/01/04 09:06:48;;;;;;;1.55;0.30;;;;;;;7.58;90.40;99104.78;5027566;27;101997;-75
2024/01/04 09:09:14;;;;;;;0.28;0.10;;;;;;;7.90;85.66;99091.81;5028846;27;97469;-75
2024/01/04 09:11:41;;;;;;;0.25;0.20;;;;;;;7.73;87.42;99118.97;5021419;27;98973;-74
2024/01/04 09:14:11;;;;;;;0.30;0.20;;;;;;;6.97;87.44;99112.13;5024046;27;100842;-73
2024/01/04 09:16:39;;;;;;;1.00;0.20;;;;;;;7.15;86.33;99116.50;5029243;27;98929;-75
2024/01/04 09:19:06;;;;;;;0.30;0.20;;;;;;;7.19;87.05;99130.38;5026809;27;96901;-75
2024/01/04 09:21:32;;;;;;;1.45;0.40;;;;;;;7.60;86.19;99137.13;5028180;27;96897;-75
2024/01/04 09:23:59;;;;;;;0.40;0.20;;;;;;;7.51;83.55;99134.94;5030605;27;97987;-76
2024/01/04 09:26:25;;;;;;;0.32;0.10;;;;;;;6.66;85.42;99145.97;5028781;27;101622;-75
2024/01/04 09:28:52;;;;;;;0.10;0.10;;;;;;;6.82;86.66;99144.38;5029733;27;98128;-71
2024/01/04 09:31:18;;;;;;;4.70;2.08;;;;;;;7.37;84.01;99153.13;5025817;28;96987;-71
2024/01/04 09:33:46;;;;;;;2.28;0.30;;;;;;;7.35;81.95;99154.97;5028444;27;97568;-71
2024/01/04 09:36:12;;;;;;;0.57;0.28;;;;;;;7.24;83.01;99149.38;5026958;27;99047;-71
2024/01/04 09:38:41;;;;;;;1.50;0.30;;;;;;;7.37;82.84;99153.13;5029484;27;96844;-70
2024/01/04 09:41:14;;;;;;;0.80;0.30;;;;;;;6.99;85.13;99168.06;5021069;27;97902;-70
2024/01/04 09:43:42;;;;;;;0.20;0.20;;;;;;;7.06;83.23;99173.88;5024203;27;103267;-70
2024/01/04 09:46:13;;;;;;;0.85;0.32;;;;;;;7.75;81.54;99174.09;5027475;27;98996;-73
2024/01/04 09:48:43;;;;;;;1.85;0.30;;;;;;;8.17;80.53;99161.44;5029368;27;97272;-70
2024/01/04 09:51:11;;;;;;;0.95;0.50;;;;;;;7.91;78.58;99165.38;5024031;27;97144;-70
2024/01/04 09:53:39;;;;;;;0.88;0.22;;;;;;;6.88;83.60;99185.22;5023155;27;101770;-71
2024/01/04 09:56:06;;;;;;;0.98;0.22;;;;;;;6.36;85.52;99187.53;5027048;27;99007;-71
2024/01/04 09:58:32;;;;;;;1.45;0.50;;;;;;;6.68;84.36;99173.84;5022735;27;96867;-71
2024/01/04 10:01:03;;;;;;;2.45;0.63;;;;;;;7.36;81.94;99187.34;5023586;27;97444;-71
2024/01/04 10:03:30;;;;;;;1.05;0.50;;;;;;;7.57;79.75;99178.47;5024439;27;98801;-71
2024/01/04 10:05:57;;;;;;;2.10;0.57;;;;;;;7.44;79.05;99186.09;5025141;27;101301;-71
2024/01/04 10:08:33;;;;;;;1.15;0.68;;;;;;;7.64;79.08;99193.00;5026771;27;99632;-70
2024/01/04 10:11:10;;;;;;;1.15;0.60;;;;;;;7.47;80.46;99206.97;5021908;27;97664;-70
2024/01/04 10:13:37;;;;;;;2.42;0.30;;;;;;;7.26;80.65;99202.72;5024274;27;98890;-70
2024/01/04 10:16:05;;;;;;;0.40;0.30;;;;;;;7.26;79.72;99218.47;5027208;27;98658;-70
2024/01/04 10:18:33;;;;;;;1.45;0.32;;;;;;;6.32;80.95;99209.56;5026436;27;97066;-70
2024/01/04 10:21:00;;;;;;;0.45;0.20;;;;;;;6.33;81.75;99225.22;5024433;27;96878;-73
2024/01/04 10:23:28;;;;;;;0.30;0.22;;;;;;;6.21;80.90;99201.28;5026012;27;98920;-72
2024/01/04 10:26:11;;;;;;;0.13;0.08;;;;;;;6.34;78.91;99216.44;5028242;27;98468;-71
2024/01/04 10:28:38;;;;;;;1.25;0.35;;;;;;;6.29;77.53;99226.28;5029435;27;96958;-72
2024/01/04 10:31:06;;;;;;;0.75;0.20;;;;;;;6.33;78.11;99230.47;5023024;28;97280;-73
2024/01/04 10:33:34;;;;;;;0.90;0.20;;;;;;;6.35;76.55;99238.28;5025548;27;99732;-72
2024/01/04 10:36:08;;;;;;;1.52;0.30;;;;;;;6.55;76.14;99240.06;5026698;27;102594;-72
2024/01/04 10:38:37;;;;;;;0.65;0.25;;;;;;;6.79;76.28;99245.09;5020971;27;97583;-72
2024/01/04 10:41:04;;;;;;;1.65;0.10;;;;;;;6.41;75.04;99232.78;5026149;27;97876;-72
2024/01/04 10:43:30;;;;;;;0.90;0.17;;;;;;;6.50;75.95;99242.03;5026753;27;99251;-72
2024/01/04 10:46:02;;;;;;;0.95;0.30;;;;;;;6.75;73.90;99256.66;5028209;27;100716;-72
2024/01/04 10:48:29;;;;;;;0.45;0.20;;;;;;;7.19;72.65;99252.06;5020137;27;97686;-71
2024/01/04 10:51:02;;;;;;;1.00;0.30;;;;;;;7.25;71.87;99261.44;5025567;27;96790;-71
2024/01/04 10:53:31;;;;;;;0.85;0.20;;;;;;;7.39;70.14;99253.78;5026145;27;99362;-71
2024/01/04 10:56:04;;;;;;;0.68;0.20;;;;;;;6.70;71.84;99268.25;5018704;27;98135;-74
2024/01/04 10:58:33;;;;;;;0.20;0.20;;;;;;;6.65;72.33;99278.97;5025882;27;98257;-75
2024/01/04 11:01:00;;;;;;;0.30;0.20;;;;;;;7.33;70.88;99269.84;5022690;27;97588;-76
2024/01/04 11:03:30;;;;;;;3.42;0.40;;;;;;;6.53;71.91;99266.38;5026997;27;99119;-75
2024/01/04 11:05:58;;;;;;;0.50;0.38;;;;;;;6.18;74.51;99277.47;5025298;27;101614;-75
2024/01/04 11:08:26;;;;;;;0.50;0.20;;;;;;;6.57;72.90;99273.19;5027817;27;96756;-75
2024/01/04 11:10:53;;;;;;;0.43;0.22;;;;;;;6.72;73.00;99283.03;5024641;27;97451;-75
2024/01/04 11:13:21;;;;;;;0.40;0.40;;;;;;;6.94;71.25;99276.88;5026391;27;98817;-75
2024/01/04 11:15:50;;;;;;;1.10;0.45;;;;;;;6.51;73.06;99270.81;5028468;27;98857;-75
2024/01/04 11:18:40;;;;;;;0.80;0.35;;;;;;;6.19;74.20;99294.91;5027630;27;96864;-75
2024/01/04 11:21:30;;;;;;;1.98;0.40;;;;;;;6.86;72.66;99278.97;5027045;27;97306;-75
2024/01/04 11:24:05;;;;;;;0.80;0.45;;;;;;;6.83;71.74;99289.63;5017209;27;101860;-76
2024/01/04 11:26:41;;;;;;;0.53;0.40;;;;;;;6.03;75.32;99297.31;5024037;27;99631;-76
2024/01/04 11:29:10;;;;;;;0.95;0.30;;;;;;;6.59;74.90;99288.88;5025502;27;96900;-76
2024/01/04 11:31:42;;;;;;;0.93;0.50;;;;;;;6.58;74.19;99305.53;5026046;27;97515;-75
2024/01/04 11:34:10;;;;;;;1.40;0.80;;;;;;;7.33;72.28;99301.38;5025071;27;99084;-76
2024/01/04 11:36:37;;;;;;;2.13;0.45;;;;;;;7.57;70.95;99308.13;5022271;27;98475;-75